sensor_id;sensor_type;location;lat;lon;timestamp;temperature;humidity
20658;DHT22;10488;50.846;4.078;2024-02-14T00:01:55;9.60;99.90
20658;DHT22;10488;50.846;4.078;2024-02-14T00:04:20;9.60;99.90
20658;DHT22;10488;50.846;4.078;2024-02-14T00:06:47;9.60;99.90
20658;DHT22;10488;50.846;4.078;2024-02-14T00:09:12;9.60;99.90
20658;DHT22;10488;50.846;4.078;2024-02-14T00:11:38;9.60;99.90
20658;DHT22;10488;50.846;4.078;2024-02-14T00:14:03;9.60;99.90
20658;DHT22;10488;50.846;4.078;2024-02-14T00:16:29;9.70;99.90
20658;DHT22;10488;50.846;4.078;2024-02-14T00:18:57;9.70;99.90
20658;DHT22;10488;50.846;4.078;2024-02-14T00:21:23;9.70;99.90
20658;DHT22;10488;50.846;4.078;2024-02-14T00:23:50;9.80;99.90
20658;DHT22;10488;50.846;4.078;2024-02-14T00:26:16;9.80;99.90
20658;DHT22;10488;50.846;4.078;2024-02-14T00:28:41;9.60;99.90
20658;DHT22;10488;50.846;4.078;2024-02-14T00:31:07;9.70;99.90
20658;DHT22;10488;50.846;4.078;2024-02-14T00:33:33;9.80;99.90
20658;DHT22;10488;50.846;4.078;2024-02-14T00:35:58;9.70;99.90
20658;DHT22;10488;50.846;4.078;2024-02-14T00:38:24;9.70;99.90
20658;DHT22;10488;50.846;4.078;2024-02-14T00:40:49;9.70;99.90
20658;DHT22;10488;50.846;4.078;2024-02-14T00:43:15;9.80;99.90
20658;DHT22;10488;50.846;4.078;2024-02-14T00:45:40;9.70;99.90
20658;DHT22;10488;50.846;4.078;2024-02-14T00:48:06;9.70;99.90
20658;DHT22;10488;50.846;4.078;2024-02-14T00:50:32;9.80;99.90
20658;DHT22;10488;50.846;4.078;2024-02-14T00:52:59;9.80;99.90
20658;DHT22;10488;50.846;4.078;2024-02-14T00:55:24;9.90;99.90
20658;DHT22;10488;50.846;4.078;2024-02-14T00:57:50;9.80;99.90
20658;DHT22;10488;50.846;4.078;2024-02-14T01:00:16;9.80;99.90
20658;DHT22;10488;50.846;4.078;2024-02-14T01:02:43;9.90;99.90
20658;DHT22;10488;50.846;4.078;2024-02-14T01:05:08;9.90;99.90
20658;DHT22;10488;50.846;4.078;2024-02-14T01:07:35;9.90;99.90
20658;DHT22;10488;50.846;4.078;2024-02-14T01:10:01;9.90;99.90
20658;DHT22;10488;50.846;4.078;2024-02-14T01:12:26;9.80;99.90
20658;DHT22;10488;50.846;4.078;2024-02-14T01:14:53;9.90;99.90
20658;DHT22;10488;50.846;4.078;2024-02-14T01:17:18;9.80;99.90
20658;DHT22;10488;50.846;4.078;2024-02-14T01:19:44;9.80;99.90
20658;DHT22;10488;50.846;4.078;2024-02-14T01:22:10;9.90;99.90
20658;DHT22;10488;50.846;4.078;2024-02-14T01:24:35;9.80;99.90
20658;DHT22;10488;50.846;4.078;2024-02-14T01:27:01;9.80;99.90
20658;DHT22;10488;50.846;4.078;2024-02-14T01:29:28;9.80;99.90
20658;DHT22;10488;50.846;4.078;2024-02-14T01:31:53;9.80;99.90
20658;DHT22;10488;50.846;4.078;2024-02-14T01:34:20;9.80;99.90
20658;DHT22;10488;50.846;4.078;2024-02-14T01:36:46;9.80;99.90
20658;DHT22;10488;50.846;4.078;2024-02-14T01:39:11;9.90;99.90
20658;DHT22;10488;50.846;4.078;2024-02-14T01:41:47;9.90;99.90
20658;DHT22;10488;50.846;4.078;2024-02-14T01:44:14;9.90;99.90
20658;DHT22;10488;50.846;4.078;2024-02-14T01:46:40;9.90;99.90
20658;DHT22;10488;50.846;4.078;2024-02-14T01:49:05;10.00;99.90
20658;DHT22;10488;50.846;4.078;2024-02-14T01:51:31;10.00;99.90
20658;DHT22;10488;50.846;4.078;2024-02-14T01:53:58;10.00;99.90
20658;DHT22;10488;50.846;4.078;2024-02-14T01:56:24;10.00;99.90
20658;DHT22;10488;50.846;4.078;2024-02-14T01:58:51;10.00;99.90
20658;DHT22;10488;50.846;4.078;2024-02-14T02:01:18;9.90;99.90
20658;DHT22;10488;50.846;4.078;2024-02-14T02:03:43;10.00;99.90
20658;DHT22;10488;50.846;4.078;2024-02-14T02:06:09;10.10;99.90
20658;DHT22;10488;50.846;4.078;2024-02-14T02:08:35;10.00;99.90
20658;DHT22;10488;50.846;4.078;2024-02-14T02:11:01;10.10;99.90
20658;DHT22;10488;50.846;4.078;2024-02-14T02:13:26;10.10;99.90
20658;DHT22;10488;50.846;4.078;2024-02-14T02:15:53;10.00;99.90
20658;DHT22;10488;50.846;4.078;2024-02-14T02:18:18;10.00;99.90
20658;DHT22;10488;50.846;4.078;2024-02-14T02:20:45;10.00;99.90
20658;DHT22;10488;50.846;4.078;2024-02-14T02:23:11;10.10;99.90
20658;DHT22;10488;50.846;4.078;2024-02-14T02:25:40;10.10;99.90
20658;DHT22;10488;50.846;4.078;2024-02-14T02:28:06;10.00;99.90
20658;DHT22;10488;50.846;4.078;2024-02-14T02:30:31;9.90;99.90
20658;DHT22;10488;50.846;4.078;2024-02-14T02:32:57;9.90;99.90
20658;DHT22;10488;50.846;4.078;2024-02-14T02:35:23;10.00;99.90
20658;DHT22;10488;50.846;4.078;2024-02-14T02:37:49;10.00;99.90
20658;DHT22;10488;50.846;4.078;2024-02-14T02:40:16;10.10;99.90
20658;DHT22;10488;50.846;4.078;2024-02-14T02:42:42;10.10;99.90
20658;DHT22;10488;50.846;4.078;2024-02-14T02:45:11;10.10;99.90
20658;DHT22;10488;50.846;4.078;2024-02-14T02:47:36;10.10;99.90
20658;DHT22;10488;50.846;4.078;2024-02-14T02:50:02;10.20;99.90
20658;DHT22;10488;50.846;4.078;2024-02-14T02:52:29;10.20;99.90
20658;DHT22;10488;50.846;4.078;2024-02-14T02:54:56;10.20;99.90
20658;DHT22;10488;50.846;4.078;2024-02-14T02:57:22;10.20;99.90
20658;DHT22;10488;50.846;4.078;2024-02-14T02:59:47;10.30;99.90
20658;DHT22;10488;50.846;4.078;2024-02-14T03:02:14;10.30;99.90
20658;DHT22;10488;50.846;4.078;2024-02-14T03:04:40;10.20;99.90
20658;DHT22;10488;50.846;4.078;2024-02-14T03:07:10;10.30;99.90
20658;DHT22;10488;50.846;4.078;2024-02-14T03:09:35;10.20;99.90
20658;DHT22;10488;50.846;4.078;2024-02-14T03:12:04;10.20;99.90
20658;DHT22;10488;50.846;4.078;2024-02-14T03:14:33;10.30;99.90
20658;DHT22;10488;50.846;4.078;2024-02-14T03:16:59;10.20;99.90
20658;DHT22;10488;50.846;4.078;2024-02-14T03:19:25;10.30;99.90
20658;DHT22;10488;50.846;4.078;2024-02-14T03:21:55;10.30;99.90
20658;DHT22;10488;50.846;4.078;2024-02-14T03:24:21;10.20;99.90
20658;DHT22;10488;50.846;4.078;2024-02-14T03:26:47;10.30;99.90
20658;DHT22;10488;50.846;4.078;2024-02-14T03:29:12;10.30;99.90
20658;DHT22;10488;50.846;4.078;2024-02-14T03:31:38;10.30;99.90
20658;DHT22;10488;50.846;4.078;2024-02-14T03:34:04;10.20;99.90
20658;DHT22;10488;50.846;4.078;2024-02-14T03:36:30;10.30;99.90
20658;DHT22;10488;50.846;4.078;2024-02-14T03:38:58;10.20;99.90
20658;DHT22;10488;50.846;4.078;2024-02-14T03:41:24;10.10;99.90
20658;DHT22;10488;50.846;4.078;2024-02-14T03:43:49;10.10;99.90
20658;DHT22;10488;50.846;4.078;2024-02-14T03:46:16;10.10;99.90
20658;DHT22;10488;50.846;4.078;2024-02-14T03:48:43;10.20;99.90
20658;DHT22;10488;50.846;4.078;2024-02-14T03:51:09;10.20;99.90
20658;DHT22;10488;50.846;4.078;2024-02-14T03:53:35;10.30;99.90
20658;DHT22;10488;50.846;4.078;2024-02-14T03:56:00;10.30;99.90
20658;DHT22;10488;50.846;4.078;2024-02-14T03:58:26;10.20;99.90
20658;DHT22;10488;50.846;4.078;2024-02-14T04:00:52;10.30;99.90
20658;DHT22;10488;50.846;4.078;2024-02-14T04:03:18;10.30;99.90
20658;DHT22;10488;50.846;4.078;2024-02-14T04:05:44;10.30;99.90
20658;DHT22;10488;50.846;4.078;2024-02-14T04:08:11;10.40;99.90
20658;DHT22;10488;50.846;4.078;2024-02-14T04:10:37;10.40;99.90
20658;DHT22;10488;50.846;4.078;2024-02-14T04:13:06;10.30;99.90
20658;DHT22;10488;50.846;4.078;2024-02-14T04:15:32;10.30;99.90
20658;DHT22;10488;50.846;4.078;2024-02-14T04:17:58;10.30;99.90
20658;DHT22;10488;50.846;4.078;2024-02-14T04:20:25;10.30;99.90
20658;DHT22;10488;50.846;4.078;2024-02-14T04:22:50;10.40;99.90
20658;DHT22;10488;50.846;4.078;2024-02-14T04:25:16;10.50;99.90
20658;DHT22;10488;50.846;4.078;2024-02-14T04:27:42;10.50;99.90
20658;DHT22;10488;50.846;4.078;2024-02-14T04:30:08;10.50;99.90
20658;DHT22;10488;50.846;4.078;2024-02-14T04:32:34;10.50;99.90
20658;DHT22;10488;50.846;4.078;2024-02-14T04:34:59;10.50;99.90
20658;DHT22;10488;50.846;4.078;2024-02-14T04:37:25;10.50;99.90
20658;DHT22;10488;50.846;4.078;2024-02-14T04:39:50;10.50;99.90
20658;DHT22;10488;50.846;4.078;2024-02-14T04:42:16;10.50;99.90
20658;DHT22;10488;50.846;4.078;2024-02-14T04:44:42;10.50;99.90
20658;DHT22;10488;50.846;4.078;2024-02-14T04:47:07;10.40;99.90
20658;DHT22;10488;50.846;4.078;2024-02-14T04:49:35;10.40;99.90
20658;DHT22;10488;50.846;4.078;2024-02-14T04:52:00;10.40;99.90
20658;DHT22;10488;50.846;4.078;2024-02-14T04:54:26;10.40;99.90
20658;DHT22;10488;50.846;4.078;2024-02-14T04:56:53;10.40;99.90
20658;DHT22;10488;50.846;4.078;2024-02-14T04:59:19;10.40;99.90
20658;DHT22;10488;50.846;4.078;2024-02-14T05:01:44;10.40;99.90
20658;DHT22;10488;50.846;4.078;2024-02-14T05:04:11;10.40;99.90
20658;DHT22;10488;50.846;4.078;2024-02-14T05:06:38;10.50;99.90
20658;DHT22;10488;50.846;4.078;2024-02-14T05:09:05;10.50;99.90
20658;DHT22;10488;50.846;4.078;2024-02-14T05:11:31;10.50;99.90
20658;DHT22;10488;50.846;4.078;2024-02-14T05:13:56;10.40;99.90
20658;DHT22;10488;50.846;4.078;2024-02-14T05:16:22;10.40;99.90
20658;DHT22;10488;50.846;4.078;2024-02-14T05:18:48;10.50;99.90
20658;DHT22;10488;50.846;4.078;2024-02-14T05:21:15;10.60;99.90
20658;DHT22;10488;50.846;4.078;2024-02-14T05:23:40;10.60;99.90
20658;DHT22;10488;50.846;4.078;2024-02-14T05:26:06;10.50;99.90
20658;DHT22;10488;50.846;4.078;2024-02-14T05:28:32;10.50;99.90
20658;DHT22;10488;50.846;4.078;2024-02-14T05:30:59;10.60;99.90
20658;DHT22;10488;50.846;4.078;2024-02-14T05:33:25;10.60;99.90
20658;DHT22;10488;50.846;4.078;2024-02-14T05:35:51;10.70;99.90
20658;DHT22;10488;50.846;4.078;2024-02-14T05:38:17;10.60;99.90
20658;DHT22;10488;50.846;4.078;2024-02-14T05:40:48;10.70;99.90
20658;DHT22;10488;50.846;4.078;2024-02-14T05:43:14;10.70;99.90
20658;DHT22;10488;50.846;4.078;2024-02-14T05:45:40;10.70;99.90
20658;DHT22;10488;50.846;4.078;2024-02-14T05:48:07;10.70;99.90
20658;DHT22;10488;50.846;4.078;2024-02-14T05:50:33;10.70;99.90
20658;DHT22;10488;50.846;4.078;2024-02-14T05:52:59;10.70;99.90
20658;DHT22;10488;50.846;4.078;2024-02-14T05:55:25;10.80;99.90
20658;DHT22;10488;50.846;4.078;2024-02-14T05:57:51;10.70;99.90
20658;DHT22;10488;50.846;4.078;2024-02-14T06:00:20;10.70;99.90
20658;DHT22;10488;50.846;4.078;2024-02-14T06:02:49;10.70;99.90
20658;DHT22;10488;50.846;4.078;2024-02-14T06:05:16;10.70;99.90
20658;DHT22;10488;50.846;4.078;2024-02-14T06:07:42;10.60;99.90
20658;DHT22;10488;50.846;4.078;2024-02-14T06:10:08;10.80;99.90
20658;DHT22;10488;50.846;4.078;2024-02-14T06:12:34;10.90;99.90
20658;DHT22;10488;50.846;4.078;2024-02-14T06:15:01;10.80;99.90
20658;DHT22;10488;50.846;4.078;2024-02-14T06:17:26;10.80;99.90
20658;DHT22;10488;50.846;4.078;2024-02-14T06:19:53;10.90;99.90
20658;DHT22;10488;50.846;4.078;2024-02-14T06:22:18;10.90;99.90
20658;DHT22;10488;50.846;4.078;2024-02-14T06:24:44;10.90;99.90
20658;DHT22;10488;50.846;4.078;2024-02-14T06:27:10;11.00;99.90
20658;DHT22;10488;50.846;4.078;2024-02-14T06:29:35;11.00;99.90
20658;DHT22;10488;50.846;4.078;2024-02-14T06:32:01;10.90;99.90
20658;DHT22;10488;50.846;4.078;2024-02-14T06:34:27;10.90;99.90
20658;DHT22;10488;50.846;4.078;2024-02-14T06:36:54;11.00;99.90
20658;DHT22;10488;50.846;4.078;2024-02-14T06:39:19;11.00;99.90
20658;DHT22;10488;50.846;4.078;2024-02-14T06:41:46;11.00;99.90
20658;DHT22;10488;50.846;4.078;2024-02-14T06:44:12;11.00;99.90
20658;DHT22;10488;50.846;4.078;2024-02-14T06:46:38;11.00;99.90
20658;DHT22;10488;50.846;4.078;2024-02-14T06:49:04;11.10;99.90
20658;DHT22;10488;50.846;4.078;2024-02-14T06:51:29;11.10;99.90
20658;DHT22;10488;50.846;4.078;2024-02-14T06:53:56;11.00;99.90
20658;DHT22;10488;50.846;4.078;2024-02-14T06:56:22;11.00;99.90
20658;DHT22;10488;50.846;4.078;2024-02-14T06:58:47;11.00;99.90
20658;DHT22;10488;50.846;4.078;2024-02-14T07:01:18;10.80;99.90
20658;DHT22;10488;50.846;4.078;2024-02-14T07:03:47;10.90;99.90
20658;DHT22;10488;50.846;4.078;2024-02-14T07:06:13;10.90;99.90
20658;DHT22;10488;50.846;4.078;2024-02-14T07:08:42;10.90;99.90
20658;DHT22;10488;50.846;4.078;2024-02-14T07:11:07;11.00;99.90
20658;DHT22;10488;50.846;4.078;2024-02-14T07:13:33;11.00;99.90
20658;DHT22;10488;50.846;4.078;2024-02-14T07:15:59;11.00;99.90
20658;DHT22;10488;50.846;4.078;2024-02-14T07:18:24;11.10;99.90
20658;DHT22;10488;50.846;4.078;2024-02-14T07:20:50;11.10;99.90
20658;DHT22;10488;50.846;4.078;2024-02-14T07:23:16;11.00;99.90
20658;DHT22;10488;50.846;4.078;2024-02-14T07:25:42;11.00;99.90
20658;DHT22;10488;50.846;4.078;2024-02-14T07:28:08;11.00;99.90
20658;DHT22;10488;50.846;4.078;2024-02-14T07:30:34;11.10;99.90
20658;DHT22;10488;50.846;4.078;2024-02-14T07:32:59;11.10;99.90
20658;DHT22;10488;50.846;4.078;2024-02-14T07:35:26;11.10;99.90
20658;DHT22;10488;50.846;4.078;2024-02-14T07:37:51;11.10;99.90
20658;DHT22;10488;50.846;4.078;2024-02-14T07:40:17;11.10;99.90
20658;DHT22;10488;50.846;4.078;2024-02-14T07:42:42;11.20;99.90
20658;DHT22;10488;50.846;4.078;2024-02-14T07:45:08;11.10;99.90
20658;DHT22;10488;50.846;4.078;2024-02-14T07:47:34;11.20;99.90
20658;DHT22;10488;50.846;4.078;2024-02-14T07:50:00;11.20;99.90
20658;DHT22;10488;50.846;4.078;2024-02-14T07:52:25;11.10;99.90
20658;DHT22;10488;50.846;4.078;2024-02-14T07:54:55;11.20;99.90
20658;DHT22;10488;50.846;4.078;2024-02-14T07:57:22;11.10;99.90
20658;DHT22;10488;50.846;4.078;2024-02-14T07:59:48;11.20;99.90
20658;DHT22;10488;50.846;4.078;2024-02-14T08:02:14;11.20;99.90
20658;DHT22;10488;50.846;4.078;2024-02-14T08:04:40;11.30;99.90
20658;DHT22;10488;50.846;4.078;2024-02-14T08:07:05;11.20;99.90
20658;DHT22;10488;50.846;4.078;2024-02-14T08:09:31;11.20;99.90
20658;DHT22;10488;50.846;4.078;2024-02-14T08:11:56;11.30;99.90
20658;DHT22;10488;50.846;4.078;2024-02-14T08:14:22;11.30;99.90
20658;DHT22;10488;50.846;4.078;2024-02-14T08:16:47;11.30;99.90
20658;DHT22;10488;50.846;4.078;2024-02-14T08:19:13;11.30;99.90
20658;DHT22;10488;50.846;4.078;2024-02-14T08:21:39;11.30;99.90
20658;DHT22;10488;50.846;4.078;2024-02-14T08:24:06;11.30;99.90
20658;DHT22;10488;50.846;4.078;2024-02-14T08:26:31;11.30;99.90
20658;DHT22;10488;50.846;4.078;2024-02-14T08:28:57;11.30;99.90
20658;DHT22;10488;50.846;4.078;2024-02-14T08:31:23;11.30;99.90
20658;DHT22;10488;50.846;4.078;2024-02-14T08:33:49;11.40;99.90
20658;DHT22;10488;50.846;4.078;2024-02-14T08:36:15;11.50;99.90
20658;DHT22;10488;50.846;4.078;2024-02-14T08:38:42;11.50;99.90
20658;DHT22;10488;50.846;4.078;2024-02-14T08:41:08;11.50;99.90
20658;DHT22;10488;50.846;4.078;2024-02-14T08:43:33;11.60;99.90
20658;DHT22;10488;50.846;4.078;2024-02-14T08:45:59;11.60;99.90
20658;DHT22;10488;50.846;4.078;2024-02-14T08:48:25;11.70;99.90
20658;DHT22;10488;50.846;4.078;2024-02-14T08:50:52;11.60;99.90
20658;DHT22;10488;50.846;4.078;2024-02-14T08:53:18;11.60;99.90
20658;DHT22;10488;50.846;4.078;2024-02-14T08:55:44;11.60;99.90
20658;DHT22;10488;50.846;4.078;2024-02-14T08:58:09;11.60;99.90
20658;DHT22;10488;50.846;4.078;2024-02-14T09:00:38;11.60;99.90
20658;DHT22;10488;50.846;4.078;2024-02-14T09:03:05;11.80;99.90
20658;DHT22;10488;50.846;4.078;2024-02-14T09:05:31;11.90;99.90
20658;DHT22;10488;50.846;4.078;2024-02-14T09:07:57;12.00;99.90
20658;DHT22;10488;50.846;4.078;2024-02-14T09:10:22;11.90;99.90
20658;DHT22;10488;50.846;4.078;2024-02-14T09:12:48;11.90;99.90
20658;DHT22;10488;50.846;4.078;2024-02-14T09:15:14;11.80;99.90
20658;DHT22;10488;50.846;4.078;2024-02-14T09:17:40;11.90;99.90
20658;DHT22;10488;50.846;4.078;2024-02-14T09:20:08;11.90;99.90
20658;DHT22;10488;50.846;4.078;2024-02-14T09:22:38;11.80;99.90
20658;DHT22;10488;50.846;4.078;2024-02-14T09:25:04;11.80;99.90
20658;DHT22;10488;50.846;4.078;2024-02-14T09:27:31;11.80;99.90
20658;DHT22;10488;50.846;4.078;2024-02-14T09:29:56;11.70;99.90
20658;DHT22;10488;50.846;4.078;2024-02-14T09:32:22;11.70;99.90
20658;DHT22;10488;50.846;4.078;2024-02-14T09:34:48;11.80;99.90
20658;DHT22;10488;50.846;4.078;2024-02-14T09:37:13;11.90;99.90
20658;DHT22;10488;50.846;4.078;2024-02-14T09:39:39;11.80;99.90
20658;DHT22;10488;50.846;4.078;2024-02-14T09:42:16;11.90;99.90
20658;DHT22;10488;50.846;4.078;2024-02-14T09:44:45;11.90;99.90
20658;DHT22;10488;50.846;4.078;2024-02-14T09:47:12;12.00;99.90
20658;DHT22;10488;50.846;4.078;2024-02-14T09:49:39;12.10;99.90
20658;DHT22;10488;50.846;4.078;2024-02-14T09:52:06;12.00;99.90
20658;DHT22;10488;50.846;4.078;2024-02-14T09:54:33;11.90;99.90
20658;DHT22;10488;50.846;4.078;2024-02-14T09:57:04;11.90;99.90
20658;DHT22;10488;50.846;4.078;2024-02-14T09:59:31;11.90;99.90
20658;DHT22;10488;50.846;4.078;2024-02-14T10:01:57;11.90;99.90
20658;DHT22;10488;50.846;4.078;2024-02-14T10:04:23;11.90;99.90
20658;DHT22;10488;50.846;4.078;2024-02-14T10:06:50;11.90;99.90
20658;DHT22;10488;50.846;4.078;2024-02-14T10:09:22;12.00;99.90
20658;DHT22;10488;50.846;4.078;2024-02-14T10:11:48;11.90;99.90
20658;DHT22;10488;50.846;4.078;2024-02-14T10:14:14;12.00;99.90
20658;DHT22;10488;50.846;4.078;2024-02-14T10:16:40;12.00;99.90
20658;DHT22;10488;50.846;4.078;2024-02-14T10:19:17;12.00;99.90
20658;DHT22;10488;50.846;4.078;2024-02-14T10:21:44;12.00;99.90
20658;DHT22;10488;50.846;4.078;2024-02-14T10:24:20;12.00;99.90
20658;DHT22;10488;50.846;4.078;2024-02-14T10:26:45;12.10;99.90
20658;DHT22;10488;50.846;4.078;2024-02-14T10:29:11;12.10;99.90
20658;DHT22;10488;50.846;4.078;2024-02-14T10:31:37;12.00;99.90
20658;DHT22;10488;50.846;4.078;2024-02-14T10:34:02;12.10;99.90
20658;DHT22;10488;50.846;4.078;2024-02-14T10:36:31;12.20;99.90
20658;DHT22;10488;50.846;4.078;2024-02-14T10:39:00;12.20;99.90
20658;DHT22;10488;50.846;4.078;2024-02-14T10:41:26;12.20;99.90
20658;DHT22;10488;50.846;4.078;2024-02-14T10:43:57;12.30;99.90
20658;DHT22;10488;50.846;4.078;2024-02-14T10:46:23;12.30;99.90
20658;DHT22;10488;50.846;4.078;2024-02-14T10:48:54;12.20;99.90
20658;DHT22;10488;50.846;4.078;2024-02-14T10:51:23;12.30;99.90
20658;DHT22;10488;50.846;4.078;2024-02-14T10:53:52;12.30;99.90
20658;DHT22;10488;50.846;4.078;2024-02-14T10:56:18;12.30;99.90
20658;DHT22;10488;50.846;4.078;2024-02-14T10:58:47;12.30;99.90
20658;DHT22;10488;50.846;4.078;2024-02-14T11:01:14;12.30;99.90
20658;DHT22;10488;50.846;4.078;2024-02-14T11:03:42;12.30;99.90
20658;DHT22;10488;50.846;4.078;2024-02-14T11:06:08;12.30;99.90
20658;DHT22;10488;50.846;4.078;2024-02-14T11:08:36;12.40;99.90
20658;DHT22;10488;50.846;4.078;2024-02-14T11:11:02;12.30;99.90
20658;DHT22;10488;50.846;4.078;2024-02-14T11:13:31;12.30;99.90
20658;DHT22;10488;50.846;4.078;2024-02-14T11:16:01;12.30;99.90
20658;DHT22;10488;50.846;4.078;2024-02-14T11:18:28;12.40;99.90
20658;DHT22;10488;50.846;4.078;2024-02-14T11:21:03;12.50;99.90
20658;DHT22;10488;50.846;4.078;2024-02-14T11:23:30;12.60;99.90
20658;DHT22;10488;50.846;4.078;2024-02-14T11:26:05;12.50;99.90
20658;DHT22;10488;50.846;4.078;2024-02-14T11:28:37;12.40;99.90
20658;DHT22;10488;50.846;4.078;2024-02-14T11:31:07;12.40;99.90
20658;DHT22;10488;50.846;4.078;2024-02-14T11:33:34;12.40;99.90
20658;DHT22;10488;50.846;4.078;2024-02-14T11:36:07;12.40;99.90
20658;DHT22;10488;50.846;4.078;2024-02-14T11:38:35;12.40;99.90
20658;DHT22;10488;50.846;4.078;2024-02-14T11:41:02;12.30;99.90
20658;DHT22;10488;50.846;4.078;2024-02-14T11:43:29;12.50;99.90
20658;DHT22;10488;50.846;4.078;2024-02-14T11:45:55;12.50;99.90
20658;DHT22;10488;50.846;4.078;2024-02-14T11:48:21;12.60;99.90
20658;DHT22;10488;50.846;4.078;2024-02-14T11:50:49;12.50;99.90
20658;DHT22;10488;50.846;4.078;2024-02-14T11:53:15;12.60;99.90
20658;DHT22;10488;50.846;4.078;2024-02-14T11:55:47;12.60;99.90
20658;DHT22;10488;50.846;4.078;2024-02-14T11:58:15;12.60;99.90
20658;DHT22;10488;50.846;4.078;2024-02-14T12:00:42;12.70;99.90
20658;DHT22;10488;50.846;4.078;2024-02-14T12:03:23;12.70;99.90
20658;DHT22;10488;50.846;4.078;2024-02-14T12:05:51;12.70;99.90
20658;DHT22;10488;50.846;4.078;2024-02-14T12:08:18;12.80;99.90
20658;DHT22;10488;50.846;4.078;2024-02-14T12:10:44;12.80;99.90
20658;DHT22;10488;50.846;4.078;2024-02-14T12:13:15;12.90;99.90
20658;DHT22;10488;50.846;4.078;2024-02-14T12:15:45;12.90;99.90
20658;DHT22;10488;50.846;4.078;2024-02-14T12:18:11;12.90;99.90
20658;DHT22;10488;50.846;4.078;2024-02-14T12:20:38;12.90;99.90
20658;DHT22;10488;50.846;4.078;2024-02-14T12:23:04;12.90;99.90
20658;DHT22;10488;50.846;4.078;2024-02-14T12:25:31;12.90;99.90
20658;DHT22;10488;50.846;4.078;2024-02-14T12:27:57;13.00;99.90
20658;DHT22;10488;50.846;4.078;2024-02-14T12:33:07;13.10;99.90
20658;DHT22;10488;50.846;4.078;2024-02-14T12:35:35;13.10;99.90
20658;DHT22;10488;50.846;4.078;2024-02-14T12:38:08;13.10;99.90
20658;DHT22;10488;50.846;4.078;2024-02-14T12:40:38;13.10;99.90
20658;DHT22;10488;50.846;4.078;2024-02-14T12:43:16;13.10;99.90
20658;DHT22;10488;50.846;4.078;2024-02-14T12:45:42;13.10;99.90
20658;DHT22;10488;50.846;4.078;2024-02-14T12:48:09;13.20;99.90
20658;DHT22;10488;50.846;4.078;2024-02-14T12:50:35;13.10;99.90
20658;DHT22;10488;50.846;4.078;2024-02-14T12:53:02;13.10;99.90
20658;DHT22;10488;50.846;4.078;2024-02-14T12:55:28;13.20;99.90
20658;DHT22;10488;50.846;4.078;2024-02-14T12:57:57;13.20;99.90
20658;DHT22;10488;50.846;4.078;2024-02-14T13:00:23;13.10;99.90
20658;DHT22;10488;50.846;4.078;2024-02-14T13:02:50;13.00;99.90
20658;DHT22;10488;50.846;4.078;2024-02-14T13:05:16;13.10;99.90
20658;DHT22;10488;50.846;4.078;2024-02-14T13:07:42;13.00;99.90
20658;DHT22;10488;50.846;4.078;2024-02-14T13:10:08;13.10;99.90
20658;DHT22;10488;50.846;4.078;2024-02-14T13:12:39;13.00;99.90
20658;DHT22;10488;50.846;4.078;2024-02-14T13:15:06;12.90;99.90
20658;DHT22;10488;50.846;4.078;2024-02-14T13:17:32;12.90;99.90
20658;DHT22;10488;50.846;4.078;2024-02-14T13:19:57;12.90;99.90
20658;DHT22;10488;50.846;4.078;2024-02-14T13:22:25;13.00;99.90
20658;DHT22;10488;50.846;4.078;2024-02-14T13:24:51;13.10;99.90
20658;DHT22;10488;50.846;4.078;2024-02-14T13:27:17;13.20;99.90
20658;DHT22;10488;50.846;4.078;2024-02-14T13:29:42;13.10;99.90
20658;DHT22;10488;50.846;4.078;2024-02-14T13:32:09;13.10;99.90
20658;DHT22;10488;50.846;4.078;2024-02-14T13:34:34;13.10;99.90
20658;DHT22;10488;50.846;4.078;2024-02-14T13:37:00;13.20;99.90
20658;DHT22;10488;50.846;4.078;2024-02-14T13:39:27;13.20;99.90
20658;DHT22;10488;50.846;4.078;2024-02-14T13:41:53;13.10;99.90
20658;DHT22;10488;50.846;4.078;2024-02-14T13:44:20;13.20;99.90
20658;DHT22;10488;50.846;4.078;2024-02-14T13:46:45;13.30;99.90
20658;DHT22;10488;50.846;4.078;2024-02-14T13:49:12;13.20;99.90
20658;DHT22;10488;50.846;4.078;2024-02-14T13:51:41;13.20;99.90
20658;DHT22;10488;50.846;4.078;2024-02-14T13:54:07;13.20;99.90
20658;DHT22;10488;50.846;4.078;2024-02-14T13:56:34;13.20;99.90
20658;DHT22;10488;50.846;4.078;2024-02-14T13:59:00;13.30;99.90
20658;DHT22;10488;50.846;4.078;2024-02-14T14:01:25;13.20;99.90
20658;DHT22;10488;50.846;4.078;2024-02-14T14:03:52;13.20;99.90
20658;DHT22;10488;50.846;4.078;2024-02-14T14:06:20;13.30;99.90
20658;DHT22;10488;50.846;4.078;2024-02-14T14:08:46;13.30;99.90
20658;DHT22;10488;50.846;4.078;2024-02-14T14:11:12;13.30;99.90
20658;DHT22;10488;50.846;4.078;2024-02-14T14:13:37;13.40;99.90
20658;DHT22;10488;50.846;4.078;2024-02-14T14:16:03;13.50;99.90
20658;DHT22;10488;50.846;4.078;2024-02-14T14:18:30;13.50;99.90
20658;DHT22;10488;50.846;4.078;2024-02-14T14:20:56;13.50;99.90
20658;DHT22;10488;50.846;4.078;2024-02-14T14:23:22;13.40;99.90
20658;DHT22;10488;50.846;4.078;2024-02-14T14:25:47;13.60;99.90
20658;DHT22;10488;50.846;4.078;2024-02-14T14:28:13;13.50;99.90
20658;DHT22;10488;50.846;4.078;2024-02-14T14:30:40;13.60;99.90
20658;DHT22;10488;50.846;4.078;2024-02-14T14:33:08;13.60;99.90
20658;DHT22;10488;50.846;4.078;2024-02-14T14:35:34;13.50;99.90
20658;DHT22;10488;50.846;4.078;2024-02-14T14:38:04;13.50;99.90
20658;DHT22;10488;50.846;4.078;2024-02-14T14:40:30;13.50;99.90
20658;DHT22;10488;50.846;4.078;2024-02-14T14:42:56;13.70;99.90
20658;DHT22;10488;50.846;4.078;2024-02-14T14:45:22;13.70;99.90
20658;DHT22;10488;50.846;4.078;2024-02-14T14:47:47;13.70;99.90
20658;DHT22;10488;50.846;4.078;2024-02-14T14:50:14;13.80;99.90
20658;DHT22;10488;50.846;4.078;2024-02-14T14:52:41;13.80;99.90
20658;DHT22;10488;50.846;4.078;2024-02-14T14:55:09;13.70;99.90
20658;DHT22;10488;50.846;4.078;2024-02-14T14:57:35;13.60;99.90
20658;DHT22;10488;50.846;4.078;2024-02-14T15:00:15;13.60;99.90
20658;DHT22;10488;50.846;4.078;2024-02-14T15:02:42;13.60;99.90
20658;DHT22;10488;50.846;4.078;2024-02-14T15:05:11;13.60;99.90
20658;DHT22;10488;50.846;4.078;2024-02-14T15:07:40;13.70;99.90
20658;DHT22;10488;50.846;4.078;2024-02-14T15:10:06;13.70;99.90
20658;DHT22;10488;50.846;4.078;2024-02-14T15:12:35;13.60;99.90
20658;DHT22;10488;50.846;4.078;2024-02-14T15:15:05;13.70;99.90
20658;DHT22;10488;50.846;4.078;2024-02-14T15:17:31;13.60;99.90
20658;DHT22;10488;50.846;4.078;2024-02-14T15:19:57;13.60;99.90
20658;DHT22;10488;50.846;4.078;2024-02-14T15:22:23;13.50;99.90
20658;DHT22;10488;50.846;4.078;2024-02-14T15:24:55;13.50;99.90
20658;DHT22;10488;50.846;4.078;2024-02-14T15:27:21;13.50;99.90
20658;DHT22;10488;50.846;4.078;2024-02-14T15:29:51;13.50;99.90
20658;DHT22;10488;50.846;4.078;2024-02-14T15:32:35;13.50;99.90